Time;durP1;ratioP1;P1;durP2;ratioP2;P2;SDS_P1;SDS_P2;PMS_P1;PMS_P2;Temp;Humidity;BMP_temperature;BMP_pressure;BME280_temperature;BME280_humidity;BME280_pressure;Samples;Min_cycle;Max_cycle;Signal;HPM_P1;HPM_P2
2023/12/19 00:00:29;;;;;;;17.00;13.13;;;;;;;;;;5016580;28;20041;-62
2023/12/19 00:02:58;;;;;;;17.27;15.30;;;;;;;;;;5018350;28;20053;-61
2023/12/19 00:05:23;;;;;;;25.52;17.90;;;;;;;;;;4983473;28;20054;-62
2023/12/19 00:07:49;;;;;;;20.15;15.40;;;;;;;;;;4991005;28;20056;-60
2023/12/19 00:10:15;;;;;;;28.15;18.65;;;;;;;;;;4993686;28;20407;-62
2023/12/19 00:12:41;;;;;;;14.40;11.00;;;;;;;;;;4994781;28;20092;-60
2023/12/19 00:15:07;;;;;;;11.10;10.10;;;;;;;;;;4994635;28;20029;-62
2023/12/19 00:17:33;;;;;;;14.95;13.48;;;;;;;;;;4996078;28;20044;-63
2023/12/19 00:19:59;;;;;;;12.38;11.13;;;;;;;;;;4998942;28;20049;-62
2023/12/19 00:22:24;;;;;;;15.10;13.57;;;;;;;;;;4995074;28;20044;-63
2023/12/19 00:24:51;;;;;;;21.00;16.02;;;;;;;;;;4997127;28;20121;-63
2023/12/19 00:27:17;;;;;;;17.20;14.10;;;;;;;;;;4997198;28;20055;-63
2023/12/19 00:29:43;;;;;;;19.75;15.55;;;;;;;;;;4995002;28;20037;-61
2023/12/19 00:32:08;;;;;;;26.35;15.40;;;;;;;;;;4994927;28;20531;-61
2023/12/19 00:34:34;;;;;;;17.13;10.77;;;;;;;;;;4994717;28;20046;-61
2023/12/19 00:37:00;;;;;;;20.40;17.17;;;;;;;;;;4994183;28;20400;-60
2023/12/19 00:39:27;;;;;;;13.25;11.98;;;;;;;;;;4995381;28;20068;-59
2023/12/19 00:41:53;;;;;;;12.50;11.30;;;;;;;;;;4997229;28;20045;-61
2023/12/19 00:44:19;;;;;;;9.18;8.43;;;;;;;;;;4994143;28;20549;-60
2023/12/19 00:46:45;;;;;;;14.52;13.05;;;;;;;;;;4996088;28;20113;-61
2023/12/19 00:49:11;;;;;;;15.70;12.85;;;;;;;;;;4991960;28;20038;-60
2023/12/19 00:51:37;;;;;;;17.50;15.55;;;;;;;;;;5001535;28;20034;-62
2023/12/19 00:54:02;;;;;;;12.25;11.23;;;;;;;;;;4997059;28;20045;-60
2023/12/19 00:56:29;;;;;;;10.00;9.23;;;;;;;;;;4998076;28;20030;-59
2023/12/19 00:58:54;;;;;;;17.60;13.38;;;;;;;;;;5003927;28;20065;-62
2023/12/19 01:01:24;;;;;;;10.30;9.45;;;;;;;;;;4997772;28;20129;-62
2023/12/19 01:03:50;;;;;;;9.85;9.15;;;;;;;;;;4999233;28;20064;-61
2023/12/19 01:06:16;;;;;;;10.32;9.45;;;;;;;;;;4999910;28;20042;-63
2023/12/19 01:08:42;;;;;;;20.77;16.40;;;;;;;;;;5003329;28;20083;-61
2023/12/19 01:11:09;;;;;;;22.70;16.52;;;;;;;;;;4996627;28;20057;-63
2023/12/19 01:13:35;;;;;;;14.60;13.10;;;;;;;;;;5007876;28;20109;-62
2023/12/19 01:16:01;;;;;;;10.57;9.77;;;;;;;;;;5007605;28;20095;-63
2023/12/19 01:18:27;;;;;;;17.50;13.35;;;;;;;;;;4997772;28;20069;-60
2023/12/19 01:20:53;;;;;;;11.75;10.73;;;;;;;;;;5004106;28;20037;-62
2023/12/19 01:23:19;;;;;;;15.48;12.70;;;;;;;;;;5006624;28;20044;-61
2023/12/19 01:25:44;;;;;;;15.80;14.13;;;;;;;;;;5002577;28;20556;-62
2023/12/19 01:28:11;;;;;;;12.35;11.15;;;;;;;;;;5001532;28;20030;-63
2023/12/19 01:30:37;;;;;;;21.40;15.20;;;;;;;;;;5004013;28;20034;-61
2023/12/19 01:33:02;;;;;;;12.93;11.35;;;;;;;;;;5001667;28;20033;-62
2023/12/19 01:35:28;;;;;;;19.67;15.10;;;;;;;;;;5001795;28;20483;-59
2023/12/19 01:37:54;;;;;;;14.75;13.30;;;;;;;;;;5005507;28;20525;-60
2023/12/19 01:40:20;;;;;;;15.52;13.77;;;;;;;;;;4992165;28;20038;-61
2023/12/19 01:42:45;;;;;;;14.45;11.60;;;;;;;;;;5003557;28;20396;-59
2023/12/19 01:45:13;;;;;;;16.50;14.13;;;;;;;;;;5006520;28;20072;-60
2023/12/19 01:47:43;;;;;;;15.75;14.07;;;;;;;;;;5004533;28;20088;-61
2023/12/19 01:50:11;;;;;;;14.80;13.25;;;;;;;;;;5000965;28;20536;-62
2023/12/19 01:52:40;;;;;;;16.23;13.93;;;;;;;;;;5005326;28;20076;-60
2023/12/19 01:55:07;;;;;;;16.33;13.63;;;;;;;;;;4997251;28;20052;-59
2023/12/19 01:57:33;;;;;;;17.85;13.35;;;;;;;;;;5001089;28;20045;-57
2023/12/19 01:59:59;;;;;;;14.85;13.38;;;;;;;;;;4998130;28;20685;-62
2023/12/19 02:02:26;;;;;;;15.02;13.43;;;;;;;;;;5003052;28;20045;-59
2023/12/19 02:04:55;;;;;;;13.18;11.93;;;;;;;;;;4993762;28;20121;-59
2023/12/19 02:07:21;;;;;;;16.92;13.15;;;;;;;;;;5001171;28;20030;-63
2023/12/19 02:09:46;;;;;;;13.63;12.23;;;;;;;;;;4999569;28;20040;-61
2023/12/19 02:12:12;;;;;;;14.60;11.68;;;;;;;;;;5000253;28;20029;-60
2023/12/19 02:14:39;;;;;;;15.07;12.65;;;;;;;;;;4998474;28;20124;-61
2023/12/19 02:17:05;;;;;;;12.00;10.90;;;;;;;;;;5005871;28;20037;-61
2023/12/19 02:19:31;;;;;;;14.00;12.07;;;;;;;;;;4999773;28;20034;-60
2023/12/19 02:21:56;;;;;;;13.82;12.23;;;;;;;;;;5003291;28;20152;-58
2023/12/19 02:24:24;;;;;;;13.57;10.95;;;;;;;;;;4996754;28;20062;-58
2023/12/19 02:26:50;;;;;;;12.40;11.20;;;;;;;;;;4997457;28;20046;-60
2023/12/19 02:29:16;;;;;;;14.38;12.98;;;;;;;;;;5001018;28;20048;-61
2023/12/19 02:31:43;;;;;;;14.43;10.43;;;;;;;;;;4994609;28;20034;-57
2023/12/19 02:34:08;;;;;;;14.15;12.07;;;;;;;;;;4994819;28;20041;-63
2023/12/19 02:36:35;;;;;;;13.18;11.93;;;;;;;;;;4999097;28;20044;-60
2023/12/19 02:39:01;;;;;;;20.95;13.57;;;;;;;;;;5004249;28;20042;-60
2023/12/19 02:41:27;;;;;;;12.73;11.25;;;;;;;;;;5000398;28;20048;-60
2023/12/19 02:43:52;;;;;;;13.65;12.30;;;;;;;;;;5004416;28;20036;-60
2023/12/19 02:46:18;;;;;;;11.75;10.65;;;;;;;;;;4999598;28;20044;-62
2023/12/19 02:48:43;;;;;;;11.02;10.13;;;;;;;;;;4999123;28;20030;-60
2023/12/19 02:51:09;;;;;;;13.43;11.57;;;;;;;;;;4993573;28;20141;-60
2023/12/19 02:53:34;;;;;;;14.23;12.73;;;;;;;;;;4996911;28;20112;-61
2023/12/19 02:56:00;;;;;;;15.07;13.05;;;;;;;;;;5000000;28;20504;-60
2023/12/19 02:58:26;;;;;;;14.73;13.20;;;;;;;;;;4995851;28;20053;-60
2023/12/19 03:00:52;;;;;;;12.10;10.90;;;;;;;;;;4994397;28;20088;-59
2023/12/19 03:03:18;;;;;;;12.00;10.95;;;;;;;;;;5003880;28;20037;-60
2023/12/19 03:05:43;;;;;;;10.10;9.10;;;;;;;;;;5001268;28;20038;-60
2023/12/19 03:08:09;;;;;;;10.07;9.38;;;;;;;;;;5000537;28;20511;-60
2023/12/19 03:10:34;;;;;;;17.17;10.90;;;;;;;;;;5000702;28;20052;-60
2023/12/19 03:13:00;;;;;;;13.40;12.10;;;;;;;;;;5000268;28;20033;-61
2023/12/19 03:15:25;;;;;;;12.90;11.65;;;;;;;;;;4997706;28;20439;-61
2023/12/19 03:17:51;;;;;;;14.27;12.77;;;;;;;;;;4998933;28;20647;-60
2023/12/19 03:20:16;;;;;;;12.57;11.27;;;;;;;;;;5001223;28;20110;-60
2023/12/19 03:22:42;;;;;;;17.88;13.10;;;;;;;;;;4991067;28;20754;-60
2023/12/19 03:25:08;;;;;;;13.90;12.50;;;;;;;;;;4995848;28;20349;-60
2023/12/19 03:27:33;;;;;;;20.10;13.95;;;;;;;;;;5001966;28;20053;-60
2023/12/19 03:29:59;;;;;;;12.65;11.50;;;;;;;;;;4992441;28;20039;-63
2023/12/19 03:32:24;;;;;;;14.23;12.70;;;;;;;;;;4996218;28;20056;-61
2023/12/19 03:34:50;;;;;;;13.52;12.20;;;;;;;;;;5016966;28;20045;-61
2023/12/19 03:37:16;;;;;;;14.48;12.60;;;;;;;;;;4997458;28;20037;-61
2023/12/19 03:39:41;;;;;;;15.68;11.90;;;;;;;;;;4994915;28;20041;-60
2023/12/19 03:42:07;;;;;;;17.13;13.38;;;;;;;;;;4999148;28;20034;-61
2023/12/19 03:44:32;;;;;;;15.75;14.05;;;;;;;;;;5001556;28;20033;-61
2023/12/19 03:46:58;;;;;;;13.73;12.13;;;;;;;;;;5000800;28;20038;-61
2023/12/19 03:49:23;;;;;;;14.48;12.98;;;;;;;;;;4995886;28;20038;-61
2023/12/19 03:51:49;;;;;;;14.88;12.23;;;;;;;;;;5008121;28;20103;-61
2023/12/19 03:54:16;;;;;;;16.20;12.30;;;;;;;;;;4993718;28;20133;-61
2023/12/19 03:56:41;;;;;;;15.27;12.35;;;;;;;;;;4997959;28;20103;-61
2023/12/19 03:59:10;;;;;;;16.65;12.98;;;;;;;;;;4984321;28;21907;-60
2023/12/19 04:01:45;;;;;;;12.93;11.68;;;;;;;;;;4994363;28;20476;-61
2023/12/19 04:04:12;;;;;;;14.15;12.45;;;;;;;;;;4993081;28;20045;-60
2023/12/19 04:06:42;;;;;;;9.57;8.98;;;;;;;;;;5002138;28;20079;-59
2023/12/19 04:09:08;;;;;;;13.45;12.00;;;;;;;;;;4996700;28;20033;-60
2023/12/19 04:11:34;;;;;;;12.23;10.93;;;;;;;;;;5001289;28;20036;-60
2023/12/19 04:13:59;;;;;;;13.63;11.95;;;;;;;;;;4995831;28;21710;-60
2023/12/19 04:16:25;;;;;;;12.90;11.55;;;;;;;;;;5001001;28;20042;-60
2023/12/19 04:18:51;;;;;;;12.02;10.90;;;;;;;;;;4996564;28;20034;-59
2023/12/19 04:21:16;;;;;;;13.18;11.60;;;;;;;;;;4998330;28;20046;-59
2023/12/19 04:23:42;;;;;;;12.30;11.00;;;;;;;;;;4995798;28;20077;-61
2023/12/19 04:26:07;;;;;;;8.35;7.75;;;;;;;;;;5004257;28;20084;-61
2023/12/19 04:28:33;;;;;;;11.15;10.10;;;;;;;;;;5002426;28;20046;-60
2023/12/19 04:30:58;;;;;;;10.15;8.60;;;;;;;;;;4997032;28;20038;-60
2023/12/19 04:33:24;;;;;;;12.48;10.65;;;;;;;;;;5000848;28;20046;-58
2023/12/19 04:35:49;;;;;;;16.80;10.73;;;;;;;;;;4998430;28;20041;-61
2023/12/19 04:38:15;;;;;;;10.52;9.48;;;;;;;;;;5001062;28;20044;-61
2023/12/19 04:40:40;;;;;;;11.52;10.43;;;;;;;;;;5000572;28;20022;-58
2023/12/19 04:43:06;;;;;;;12.48;10.48;;;;;;;;;;5002669;28;20037;-61
2023/12/19 04:45:32;;;;;;;10.48;9.57;;;;;;;;;;5000832;28;20042;-60
2023/12/19 04:47:57;;;;;;;9.90;8.55;;;;;;;;;;4997879;28;20080;-62
2023/12/19 04:50:23;;;;;;;11.18;10.07;;;;;;;;;;5005917;28;20120;-61
2023/12/19 04:52:49;;;;;;;6.72;6.43;;;;;;;;;;5007709;28;20045;-61
2023/12/19 04:55:14;;;;;;;13.32;11.93;;;;;;;;;;4996667;28;20034;-61
2023/12/19 04:57:40;;;;;;;11.38;10.38;;;;;;;;;;4997810;28;20033;-61
2023/12/19 05:00:06;;;;;;;31.27;23.15;;;;;;;;;;4999409;28;20041;-60
2023/12/19 05:02:32;;;;;;;18.33;11.82;;;;;;;;;;4999347;28;20033;-61
2023/12/19 05:04:58;;;;;;;10.40;9.50;;;;;;;;;;5004586;28;20037;-61
2023/12/19 05:07:24;;;;;;;12.10;10.13;;;;;;;;;;5006549;28;20377;-60
2023/12/19 05:09:50;;;;;;;12.35;11.10;;;;;;;;;;5001492;28;20065;-61
2023/12/19 05:12:16;;;;;;;11.30;10.30;;;;;;;;;;4997409;28;20115;-61
2023/12/19 05:14:41;;;;;;;10.20;9.20;;;;;;;;;;5002147;28;20029;-61
2023/12/19 05:17:07;;;;;;;11.40;10.32;;;;;;;;;;4995998;28;20029;-60
2023/12/19 05:19:32;;;;;;;10.45;9.57;;;;;;;;;;5002994;28;20041;-60
2023/12/19 05:21:58;;;;;;;8.48;7.88;;;;;;;;;;4998393;28;20048;-60
2023/12/19 05:24:24;;;;;;;9.80;8.80;;;;;;;;;;4999100;28;20813;-61
2023/12/19 05:26:49;;;;;;;9.07;8.43;;;;;;;;;;4999065;28;20045;-61
2023/12/19 05:29:15;;;;;;;10.48;9.50;;;;;;;;;;5007552;28;20022;-61
2023/12/19 05:31:40;;;;;;;8.73;8.13;;;;;;;;;;5000325;28;21643;-61
2023/12/19 05:34:06;;;;;;;12.00;10.05;;;;;;;;;;5004200;28;20041;-59
2023/12/19 05:36:34;;;;;;;11.73;10.43;;;;;;;;;;5003139;28;21663;-61
2023/12/19 05:39:01;;;;;;;14.48;10.68;;;;;;;;;;5000967;28;20073;-60
2023/12/19 05:41:26;;;;;;;10.60;9.40;;;;;;;;;;5004614;28;20526;-61
2023/12/19 05:43:56;;;;;;;8.85;8.15;;;;;;;;;;4997460;28;20854;-61
2023/12/19 05:46:21;;;;;;;11.15;10.15;;;;;;;;;;5003261;28;20037;-61
2023/12/19 05:48:47;;;;;;;15.73;12.52;;;;;;;;;;4992945;28;20115;-60
2023/12/19 05:51:15;;;;;;;14.25;11.68;;;;;;;;;;5005431;28;20522;-59
2023/12/19 05:53:40;;;;;;;14.13;11.65;;;;;;;;;;5000228;28;20088;-60
2023/12/19 05:56:12;;;;;;;12.05;10.65;;;;;;;;;;4999227;28;20034;-61
2023/12/19 05:58:38;;;;;;;12.77;11.57;;;;;;;;;;5002708;28;20495;-61
2023/12/19 06:01:03;;;;;;;13.20;11.05;;;;;;;;;;4993166;28;20042;-60
2023/12/19 06:03:29;;;;;;;10.15;8.48;;;;;;;;;;4995777;28;20906;-60
2023/12/19 06:05:54;;;;;;;15.07;11.43;;;;;;;;;;4999063;28;20120;-61
2023/12/19 06:08:20;;;;;;;13.95;12.57;;;;;;;;;;4996930;28;20038;-60
2023/12/19 06:10:46;;;;;;;9.23;8.45;;;;;;;;;;4995659;28;20160;-59
2023/12/19 06:13:12;;;;;;;12.35;10.65;;;;;;;;;;4999799;28;20116;-60
2023/12/19 06:15:37;;;;;;;9.43;7.68;;;;;;;;;;4998588;28;20112;-60
2023/12/19 06:18:03;;;;;;;17.58;11.35;;;;;;;;;;4995729;28;20121;-60
2023/12/19 06:20:29;;;;;;;10.10;9.00;;;;;;;;;;4996836;28;20480;-60
2023/12/19 06:22:54;;;;;;;9.75;8.90;;;;;;;;;;4996955;28;20037;-60
2023/12/19 06:25:21;;;;;;;11.70;10.52;;;;;;;;;;4999742;28;20034;-61
2023/12/19 06:27:46;;;;;;;7.80;7.30;;;;;;;;;;4999560;28;20034;-60
2023/12/19 06:30:12;;;;;;;11.95;10.85;;;;;;;;;;4996614;28;20136;-60
2023/12/19 06:32:40;;;;;;;10.20;9.40;;;;;;;;;;4994974;28;20049;-60
2023/12/19 06:35:08;;;;;;;18.60;11.07;;;;;;;;;;4994543;28;20069;-61
2023/12/19 06:37:34;;;;;;;12.50;10.77;;;;;;;;;;5002337;28;20091;-59
2023/12/19 06:40:02;;;;;;;9.77;8.90;;;;;;;;;;4998715;28;20476;-61
2023/12/19 06:42:28;;;;;;;10.32;8.98;;;;;;;;;;4999739;28;20045;-60
2023/12/19 06:44:54;;;;;;;9.50;8.73;;;;;;;;;;4997999;28;20734;-59
2023/12/19 06:47:19;;;;;;;9.82;9.02;;;;;;;;;;4994643;28;20045;-61
2023/12/19 06:49:45;;;;;;;12.82;10.30;;;;;;;;;;5000305;28;20179;-61
2023/12/19 06:52:10;;;;;;;11.45;10.32;;;;;;;;;;5002785;28;20030;-61
2023/12/19 06:54:37;;;;;;;10.98;9.82;;;;;;;;;;4995030;28;20072;-61
2023/12/19 06:57:04;;;;;;;15.35;9.82;;;;;;;;;;4998539;28;20039;-61
2023/12/19 06:59:32;;;;;;;12.65;11.18;;;;;;;;;;4999352;28;20037;-61
2023/12/19 07:01:58;;;;;;;13.63;11.30;;;;;;;;;;5000497;28;20100;-61
2023/12/19 07:04:23;;;;;;;14.75;13.05;;;;;;;;;;4995804;28;20045;-61
2023/12/19 07:06:49;;;;;;;14.48;12.77;;;;;;;;;;4996811;28;20069;-61
2023/12/19 07:09:14;;;;;;;13.13;11.73;;;;;;;;;;5014168;28;20064;-61
2023/12/19 07:11:41;;;;;;;11.45;9.90;;;;;;;;;;4994669;28;20056;-61
2023/12/19 07:14:06;;;;;;;13.25;10.90;;;;;;;;;;4996442;28;20045;-61
2023/12/19 07:16:32;;;;;;;11.90;10.52;;;;;;;;;;4994477;28;20389;-60
2023/12/19 07:18:57;;;;;;;11.82;10.73;;;;;;;;;;4998113;28;20618;-60
2023/12/19 07:21:24;;;;;;;12.57;11.30;;;;;;;;;;4998789;28;20055;-59
2023/12/19 07:23:51;;;;;;;10.77;9.80;;;;;;;;;;5001602;28;20041;-60
2023/12/19 07:26:26;;;;;;;13.50;11.82;;;;;;;;;;4996054;28;20042;-60
2023/12/19 07:28:52;;;;;;;12.48;11.27;;;;;;;;;;4999225;28;20151;-60
2023/12/19 07:31:25;;;;;;;13.05;11.35;;;;;;;;;;4995008;28;20037;-60
2023/12/19 07:34:01;;;;;;;12.98;11.40;;;;;;;;;;4994752;28;20026;-60
2023/12/19 07:36:27;;;;;;;13.32;12.02;;;;;;;;;;4996993;28;20108;-60
2023/12/19 07:38:53;;;;;;;15.55;12.85;;;;;;;;;;5000617;28;20488;-58
2023/12/19 07:41:20;;;;;;;17.05;12.00;;;;;;;;;;4993862;28;20041;-60
2023/12/19 07:43:46;;;;;;;15.85;13.05;;;;;;;;;;4995926;28;20045;-59
2023/12/19 07:46:13;;;;;;;15.93;12.43;;;;;;;;;;4996719;28;20029;-59
2023/12/19 07:48:39;;;;;;;14.38;12.88;;;;;;;;;;4996860;28;20038;-59
2023/12/19 07:51:06;;;;;;;13.50;11.95;;;;;;;;;;4998079;28;20036;-59
2023/12/19 07:53:31;;;;;;;16.00;14.13;;;;;;;;;;4993227;28;20034;-60
2023/12/19 07:56:03;;;;;;;14.48;13.00;;;;;;;;;;4994673;28;20038;-59
2023/12/19 07:58:30;;;;;;;15.55;13.93;;;;;;;;;;4992116;28;20727;-59
2023/12/19 08:00:56;;;;;;;19.23;14.75;;;;;;;;;;5010981;28;20033;-59
2023/12/19 08:03:25;;;;;;;17.45;15.60;;;;;;;;;;4992295;28;20045;-59
2023/12/19 08:05:53;;;;;;;16.92;15.13;;;;;;;;;;4995898;28;20033;-60
2023/12/19 08:08:20;;;;;;;15.48;14.00;;;;;;;;;;4997817;28;20033;-60
2023/12/19 08:10:46;;;;;;;15.82;13.73;;;;;;;;;;5001027;28;20080;-59
2023/12/19 08:13:12;;;;;;;16.58;14.70;;;;;;;;;;4995541;28;20042;-60
2023/12/19 08:15:38;;;;;;;16.77;15.00;;;;;;;;;;4999632;28;20084;-60
2023/12/19 08:18:04;;;;;;;15.52;13.88;;;;;;;;;;4999860;28;20045;-58
2023/12/19 08:20:29;;;;;;;16.15;14.45;;;;;;;;;;4999119;28;20041;-60
2023/12/19 08:22:56;;;;;;;15.55;13.88;;;;;;;;;;5002998;28;20053;-59
2023/12/19 08:25:21;;;;;;;19.15;12.65;;;;;;;;;;5000097;28;20084;-60
2023/12/19 08:27:47;;;;;;;17.05;14.80;;;;;;;;;;4995126;28;20038;-60
2023/12/19 08:30:13;;;;;;;20.23;14.75;;;;;;;;;;5003153;28;20034;-60
2023/12/19 08:32:39;;;;;;;18.65;16.70;;;;;;;;;;5001737;28;20033;-60
2023/12/19 08:35:06;;;;;;;21.83;16.35;;;;;;;;;;5002970;28;20053;-61
2023/12/19 08:37:32;;;;;;;21.58;17.95;;;;;;;;;;5002224;28;20037;-60
2023/12/19 08:40:02;;;;;;;22.23;17.02;;;;;;;;;;4999984;28;20029;-60
2023/12/19 08:42:28;;;;;;;19.50;15.38;;;;;;;;;;5020848;22;20177;-61
2023/12/19 08:44:55;;;;;;;17.83;15.32;;;;;;;;;;5008544;28;20037;-60
2023/12/19 08:47:22;;;;;;;18.85;16.83;;;;;;;;;;5017124;28;20041;-57
2023/12/19 08:49:48;;;;;;;18.52;16.63;;;;;;;;;;5014270;28;20025;-60
2023/12/19 08:52:14;;;;;;;16.45;14.70;;;;;;;;;;4994998;28;20113;-60
2023/12/19 08:54:40;;;;;;;16.77;15.13;;;;;;;;;;4995101;28;20117;-57
2023/12/19 08:57:05;;;;;;;17.25;15.45;;;;;;;;;;4994941;28;20881;-61
2023/12/19 08:59:31;;;;;;;22.13;13.48;;;;;;;;;;4994543;28;20042;-61
2023/12/19 09:01:57;;;;;;;13.57;12.27;;;;;;;;;;4999720;28;20504;-58
2023/12/19 09:04:23;;;;;;;16.10;13.90;;;;;;;;;;4997181;28;20037;-60
2023/12/19 09:06:48;;;;;;;14.40;12.90;;;;;;;;;;4989965;28;20030;-59
2023/12/19 09:09:15;;;;;;;17.90;13.73;;;;;;;;;;4998462;28;20160;-63
2023/12/19 09:11:40;;;;;;;13.75;12.43;;;;;;;;;;5000737;28;20746;-62
2023/12/19 09:14:06;;;;;;;15.40;13.80;;;;;;;;;;4996152;28;20041;-62
2023/12/19 09:16:32;;;;;;;14.88;13.38;;;;;;;;;;4995424;28;20037;-62
2023/12/19 09:18:59;;;;;;;22.92;16.73;;;;;;;;;;4994475;28;20166;-62
2023/12/19 09:21:26;;;;;;;18.60;15.10;;;;;;;;;;4997090;28;20868;-61
2023/12/19 09:23:52;;;;;;;17.38;14.60;;;;;;;;;;4995259;28;20042;-64
2023/12/19 09:26:18;;;;;;;17.05;14.57;;;;;;;;;;4971213;28;20073;-63
2023/12/19 09:28:45;;;;;;;16.30;14.70;;;;;;;;;;5000749;28;20037;-62
2023/12/19 09:31:10;;;;;;;15.55;13.93;;;;;;;;;;4997636;28;20029;-63
2023/12/19 09:33:38;;;;;;;18.95;14.55;;;;;;;;;;4995191;28;20104;-61
2023/12/19 09:36:26;;;;;;;16.00;14.32;;;;;;;;;;5000073;28;20120;-63
2023/12/19 09:38:52;;;;;;;15.02;13.48;;;;;;;;;;4997076;28;20147;-63
2023/12/19 09:41:18;;;;;;;16.70;15.10;;;;;;;;;;4997298;28;20121;-64
2023/12/19 09:43:44;;;;;;;16.60;14.88;;;;;;;;;;5001265;28;20688;-63
2023/12/19 09:46:11;;;;;;;18.38;14.57;;;;;;;;;;4995989;28;20073;-61
2023/12/19 09:48:37;;;;;;;15.80;14.27;;;;;;;;;;4979233;28;20033;-62
2023/12/19 09:51:05;;;;;;;17.38;15.55;;;;;;;;;;4997962;28;20044;-62
2023/12/19 09:53:32;;;;;;;16.73;14.82;;;;;;;;;;4997821;28;20048;-62
2023/12/19 09:55:59;;;;;;;16.52;14.93;;;;;;;;;;4998839;28;20048;-63
2023/12/19 09:58:28;;;;;;;17.15;15.32;;;;;;;;;;4998923;28;20112;-63
2023/12/19 10:00:58;;;;;;;16.30;14.63;;;;;;;;;;4991181;28;20050;-64
2023/12/19 10:03:23;;;;;;;16.80;15.05;;;;;;;;;;4997697;28;20037;-62
2023/12/19 10:05:49;;;;;;;19.08;17.17;;;;;;;;;;4992377;28;20048;-58
2023/12/19 10:08:15;;;;;;;18.30;16.55;;;;;;;;;;4997243;28;20034;-59
2023/12/19 10:10:50;;;;;;;19.77;17.27;;;;;;;;;;4994360;28;20052;-62
2023/12/19 10:13:35;;;;;;;19.52;17.50;;;;;;;;;;4998974;28;20846;-60
2023/12/19 10:16:01;;;;;;;18.38;16.65;;;;;;;;;;4977674;28;20030;-61
2023/12/19 10:18:27;;;;;;;18.10;16.35;;;;;;;;;;4999956;28;20594;-61
2023/12/19 10:21:13;;;;;;;22.55;19.50;;;;;;;;;;4998292;28;20049;-62
2023/12/19 10:23:43;;;;;;;20.65;18.52;;;;;;;;;;4993483;28;20189;-61
2023/12/19 10:26:10;;;;;;;21.88;19.58;;;;;;;;;;5001653;28;20223;-60
2023/12/19 10:28:38;;;;;;;20.30;18.25;;;;;;;;;;5001171;28;20049;-61
2023/12/19 10:31:15;;;;;;;19.70;16.90;;;;;;;;;;4987009;28;20036;-61
2023/12/19 10:33:49;;;;;;;18.92;16.50;;;;;;;;;;4988478;28;20510;-58
2023/12/19 10:36:28;;;;;;;21.55;18.38;;;;;;;;;;4990807;28;20494;-60
2023/12/19 10:38:55;;;;;;;21.33;19.13;;;;;;;;;;4989699;28;20042;-58
2023/12/19 10:41:31;;;;;;;25.88;20.27;;;;;;;;;;4993049;28;20053;-60
2023/12/19 10:44:00;;;;;;;21.88;18.73;;;;;;;;;;4976810;28;20176;-60
2023/12/19 10:46:28;;;;;;;18.00;15.50;;;;;;;;;;4989489;28;20054;-56
2023/12/19 10:48:58;;;;;;;21.77;15.52;;;;;;;;;;4990074;28;20502;-60
2023/12/19 10:51:33;;;;;;;24.00;18.50;;;;;;;;;;4990333;28;20040;-61
2023/12/19 10:54:13;;;;;;;21.83;17.23;;;;;;;;;;4990123;28;20966;-59
2023/12/19 10:57:04;;;;;;;20.95;17.48;;;;;;;;;;4991372;28;20065;-60
2023/12/19 10:59:33;;;;;;;24.30;17.83;;;;;;;;;;4995534;28;20118;-59
2023/12/19 11:02:04;;;;;;;20.80;18.70;;;;;;;;;;4986508;28;20045;-59
2023/12/19 11:04:37;;;;;;;19.65;16.85;;;;;;;;;;4989379;28;20045;-60
2023/12/19 11:07:08;;;;;;;20.45;16.23;;;;;;;;;;4989264;28;20044;-58
2023/12/19 11:09:35;;;;;;;22.73;17.67;;;;;;;;;;4994765;28;20777;-60
2023/12/19 11:12:01;;;;;;;17.90;15.30;;;;;;;;;;4990712;28;20467;-60
2023/12/19 11:14:27;;;;;;;16.73;14.93;;;;;;;;;;4994227;28;20080;-59
2023/12/19 11:17:14;;;;;;;18.60;16.80;;;;;;;;;;4989564;28;20392;-60
2023/12/19 11:19:46;;;;;;;20.05;17.25;;;;;;;;;;4990967;28;20410;-61
2023/12/19 11:22:28;;;;;;;19.45;16.45;;;;;;;;;;4990057;28;20545;-60
2023/12/19 11:25:13;;;;;;;16.08;14.50;;;;;;;;;;4989953;28;20034;-61
2023/12/19 11:27:46;;;;;;;22.25;18.95;;;;;;;;;;4991099;28;20084;-60
2023/12/19 11:30:35;;;;;;;19.80;16.42;;;;;;;;;;4991431;28;20029;-59
2023/12/19 11:33:02;;;;;;;19.10;16.15;;;;;;;;;;4990594;28;20527;-58
2023/12/19 11:35:29;;;;;;;18.98;16.17;;;;;;;;;;4991787;28;20046;-59
2023/12/19 11:38:13;;;;;;;19.83;17.70;;;;;;;;;;4993134;28;20049;-60
2023/12/19 11:40:45;;;;;;;20.92;18.67;;;;;;;;;;4993175;28;20139;-59
2023/12/19 11:43:31;;;;;;;19.08;17.08;;;;;;;;;;4990695;28;20050;-59
2023/12/19 11:46:03;;;;;;;20.48;16.45;;;;;;;;;;4983278;28;20048;-62
2023/12/19 11:48:51;;;;;;;21.05;17.02;;;;;;;;;;4993851;28;20042;-56
2023/12/19 11:51:41;;;;;;;17.40;15.57;;;;;;;;;;4989292;28;21305;-59
2023/12/19 11:54:10;;;;;;;19.95;17.45;;;;;;;;;;4991800;28;20530;-57
2023/12/19 11:56:39;;;;;;;24.23;17.92;;;;;;;;;;4994023;28;20034;-60
2023/12/19 11:59:04;;;;;;;23.27;17.58;;;;;;;;;;4991597;28;20097;-61
2023/12/19 12:01:57;;;;;;;22.50;15.52;;;;;;;;;;4993529;28;20145;-59
2023/12/19 12:04:23;;;;;;;22.20;17.25;;;;;;;;;;4985206;28;20046;-61
2023/12/19 12:06:49;;;;;;;18.42;16.00;;;;;;;;;;4990317;28;20041;-57
2023/12/19 12:09:18;;;;;;;19.40;17.30;;;;;;;;;;4973315;28;20038;-60
2023/12/19 12:11:48;;;;;;;18.23;16.05;;;;;;;;;;4991542;28;20131;-59
2023/12/19 12:14:14;;;;;;;19.30;17.17;;;;;;;;;;4991541;28;20100;-60
2023/12/19 12:16:40;;;;;;;18.55;16.55;;;;;;;;;;4987447;28;20037;-57
2023/12/19 12:19:26;;;;;;;20.85;16.60;;;;;;;;;;4989632;28;20124;-59
2023/12/19 12:21:52;;;;;;;17.63;15.73;;;;;;;;;;4990237;28;20049;-61
2023/12/19 12:24:20;;;;;;;22.75;17.00;;;;;;;;;;4991549;28;20046;-61
2023/12/19 12:26:49;;;;;;;21.77;16.05;;;;;;;;;;4987649;28;20041;-61
2023/12/19 12:29:17;;;;;;;17.15;15.50;;;;;;;;;;4986342;28;20068;-59
2023/12/19 12:31:46;;;;;;;16.92;15.25;;;;;;;;;;4992727;28;20135;-60
2023/12/19 12:34:12;;;;;;;16.63;14.93;;;;;;;;;;4986381;28;20087;-59
2023/12/19 12:36:38;;;;;;;17.73;15.93;;;;;;;;;;4972454;28;20041;-56
2023/12/19 12:39:04;;;;;;;16.77;15.02;;;;;;;;;;4989150;28;20042;-60
2023/12/19 12:41:30;;;;;;;17.38;15.57;;;;;;;;;;4992858;28;20042;-60
2023/12/19 12:43:57;;;;;;;18.48;16.35;;;;;;;;;;4989376;28;20072;-60
2023/12/19 12:46:24;;;;;;;16.80;15.10;;;;;;;;;;4991453;28;20088;-60
2023/12/19 12:48:52;;;;;;;17.33;15.48;;;;;;;;;;4993876;28;20061;-58
2023/12/19 12:51:20;;;;;;;16.38;14.35;;;;;;;;;;4991661;28;20093;-59
2023/12/19 12:53:54;;;;;;;21.23;14.57;;;;;;;;;;4990811;28;20498;-59
2023/12/19 12:56:20;;;;;;;14.63;12.90;;;;;;;;;;4992150;28;20745;-61
2023/12/19 12:58:46;;;;;;;17.15;15.35;;;;;;;;;;4993940;28;20038;-60
2023/12/19 13:01:13;;;;;;;16.00;14.15;;;;;;;;;;4986014;28;20811;-59
2023/12/19 13:03:39;;;;;;;15.73;14.23;;;;;;;;;;4997728;28;20072;-60
2023/12/19 13:06:05;;;;;;;16.58;14.88;;;;;;;;;;4998468;28;20504;-59
2023/12/19 13:08:32;;;;;;;15.77;14.05;;;;;;;;;;5002491;28;20030;-59
2023/12/19 13:10:58;;;;;;;16.58;14.88;;;;;;;;;;5000934;28;20045;-59
2023/12/19 13:13:27;;;;;;;15.98;14.35;;;;;;;;;;4997825;28;20041;-56
2023/12/19 13:15:53;;;;;;;15.85;14.15;;;;;;;;;;5000050;28;20033;-60
2023/12/19 13:18:21;;;;;;;15.80;13.77;;;;;;;;;;4998364;28;20037;-56
2023/12/19 13:20:46;;;;;;;16.45;14.82;;;;;;;;;;4999519;28;20092;-58
2023/12/19 13:23:12;;;;;;;17.25;15.43;;;;;;;;;;4998544;28;20446;-60
2023/12/19 13:25:40;;;;;;;30.98;19.58;;;;;;;;;;4998996;28;20043;-58
2023/12/19 13:28:11;;;;;;;19.08;15.75;;;;;;;;;;4996510;28;20044;-61
2023/12/19 13:30:37;;;;;;;17.85;15.10;;;;;;;;;;4995219;28;20113;-59
2023/12/19 13:33:08;;;;;;;18.25;14.63;;;;;;;;;;4998944;28;20845;-59
2023/12/19 13:35:35;;;;;;;18.30;14.80;;;;;;;;;;4995507;28;20108;-59
2023/12/19 13:38:01;;;;;;;19.45;14.95;;;;;;;;;;4996561;28;20573;-61
2023/12/19 13:40:27;;;;;;;17.58;15.77;;;;;;;;;;4994857;28;20033;-57
2023/12/19 13:42:54;;;;;;;24.80;19.58;;;;;;;;;;4996768;28;20037;-60
2023/12/19 13:45:20;;;;;;;25.63;20.00;;;;;;;;;;4998985;28;20041;-60
2023/12/19 13:47:45;;;;;;;21.90;15.55;;;;;;;;;;4981260;28;20447;-58
2023/12/19 13:50:12;;;;;;;19.70;17.40;;;;;;;;;;4999653;28;20030;-60
2023/12/19 13:52:38;;;;;;;24.67;18.80;;;;;;;;;;4999033;28;20670;-55
2023/12/19 13:55:05;;;;;;;18.83;16.67;;;;;;;;;;4997080;28;20037;-58
2023/12/19 13:57:31;;;;;;;18.85;16.88;;;;;;;;;;4997618;28;20038;-59
2023/12/19 13:59:56;;;;;;;23.38;16.15;;;;;;;;;;5001893;28;20645;-61
2023/12/19 14:02:23;;;;;;;18.48;15.15;;;;;;;;;;4997649;28;20046;-60
2023/12/19 14:04:49;;;;;;;19.38;16.70;;;;;;;;;;4998772;28;20069;-58
2023/12/19 14:07:17;;;;;;;16.45;14.70;;;;;;;;;;4995965;28;20046;-59
2023/12/19 14:09:43;;;;;;;18.37;14.67;;;;;;;;;;5000298;28;20168;-61
2023/12/19 14:12:08;;;;;;;16.02;14.43;;;;;;;;;;4997999;28;20121;-61
2023/12/19 14:14:34;;;;;;;18.83;15.20;;;;;;;;;;4998605;28;20041;-58
2023/12/19 14:16:59;;;;;;;15.05;13.50;;;;;;;;;;4997639;28;20125;-61
2023/12/19 14:19:25;;;;;;;16.70;15.07;;;;;;;;;;4994472;28;20037;-61